Easterwood Field
KCLL : now visible

Airfield :











YOU CAN JOIN US ON...

 
LOGIN :

Register | Disclaimer

   EN    FR    IT 

 









Legend :    VFR   Marginal VFR   IFR   Intensive IFR   Very Intensive IFR
Visi :
Ceiling :
>= 8 km
>= 3000ft
5 to 8 km
1000 to 3000 ft
1500m to 5 km
500 to 1000 ft
800 to 1500m
200 to 500 ft
< 800m
< 200 ft
Symbols :   Thunderstorms  Fog  Heavy snow  Heavy precipitations  Wind > 20 kt






- Airport Elevation : 320 ft
- IATA code : CLL


KCLL - Easterwood Field

CURRENT METAR :
  • 151553Z 19016G22KT 10SM OVC019 22/18 A2983 RMK AO2 SLP096 T02220178

EXPIRED METARs :
  • 151453Z 19010KT 10SM OVC016 21/18 A2982 RMK AO2 SLP094 T02060178 53018
  • 151406Z 19009KT 10SM OVC016 20/18 A2981 RMK AO2 T02000178

TAF KCLL
Valid from the 15 at 15:00 until the 16 at 12:00 UTC


151513Z 1515/1612 19010KT P6SM OVC015 WS020/21030KT
FM151700 20013G21KT P6SM BKN020
FM152100 18009KT P6SM SCT025
FM160200 17007KT P6SM BKN015
FM160500 19006KT P6SM VCSH OVC010



MET'MAP, your aeronautical weather chart ! - Copyright ORBIFLY December 2007 - Disclaimer

ORBIFLY MET'MAP TEAM :

Programming & Development : Alexandra Zaïnal
Concept & original design : Baudouin d'Aumeries
Assistance for programming : Marc-Olivier Méhu
Technical & hardware support : Manuel Goepfert

Contact : metmap@orbifly.com




SOURCES & CREDITS :

   NOAA       Earth
Advisory